sensor_id;sensor_type;location;lat;lon;timestamp;temperature;humidity
68387;DHT22;55338;43.062;25.624;2022-08-19T00:00:29;23.10;77.10
68387;DHT22;55338;43.062;25.624;2022-08-19T00:02:55;23.10;77.10
68387;DHT22;55338;43.062;25.624;2022-08-19T00:05:22;23.00;78.80
68387;DHT22;55338;43.062;25.624;2022-08-19T00:07:50;22.90;79.20
68387;DHT22;55338;43.062;25.624;2022-08-19T00:10:19;22.90;79.70
68387;DHT22;55338;43.062;25.624;2022-08-19T00:12:45;22.90;79.50
68387;DHT22;55338;43.062;25.624;2022-08-19T00:15:13;22.90;79.60
68387;DHT22;55338;43.062;25.624;2022-08-19T00:17:41;22.80;79.40
68387;DHT22;55338;43.062;25.624;2022-08-19T00:20:14;22.80;79.40
68387;DHT22;55338;43.062;25.624;2022-08-19T00:22:42;22.80;79.80
68387;DHT22;55338;43.062;25.624;2022-08-19T00:25:08;22.70;79.70
68387;DHT22;55338;43.062;25.624;2022-08-19T00:27:34;22.60;79.60
68387;DHT22;55338;43.062;25.624;2022-08-19T00:30:01;22.70;79.80
68387;DHT22;55338;43.062;25.624;2022-08-19T00:32:28;22.60;79.70
68387;DHT22;55338;43.062;25.624;2022-08-19T00:34:54;22.70;79.70
68387;DHT22;55338;43.062;25.624;2022-08-19T00:37:22;22.60;79.20
68387;DHT22;55338;43.062;25.624;2022-08-19T00:39:49;22.60;79.60
68387;DHT22;55338;43.062;25.624;2022-08-19T00:42:17;22.60;79.50
68387;DHT22;55338;43.062;25.624;2022-08-19T00:44:43;22.50;80.40
68387;DHT22;55338;43.062;25.624;2022-08-19T00:47:09;22.50;79.80
68387;DHT22;55338;43.062;25.624;2022-08-19T00:49:43;22.50;79.70
68387;DHT22;55338;43.062;25.624;2022-08-19T00:52:20;22.50;80.00
68387;DHT22;55338;43.062;25.624;2022-08-19T00:54:47;22.40;80.10
68387;DHT22;55338;43.062;25.624;2022-08-19T00:57:17;22.40;80.30
68387;DHT22;55338;43.062;25.624;2022-08-19T00:59:46;22.40;80.60
68387;DHT22;55338;43.062;25.624;2022-08-19T01:02:15;22.30;81.10
68387;DHT22;55338;43.062;25.624;2022-08-19T01:04:40;22.30;81.10
68387;DHT22;55338;43.062;25.624;2022-08-19T01:07:07;22.20;82.00
68387;DHT22;55338;43.062;25.624;2022-08-19T01:09:33;22.10;81.80
68387;DHT22;55338;43.062;25.624;2022-08-19T01:11:59;22.00;82.20
68387;DHT22;55338;43.062;25.624;2022-08-19T01:14:25;22.00;82.10
68387;DHT22;55338;43.062;25.624;2022-08-19T01:16:52;22.00;82.40
68387;DHT22;55338;43.062;25.624;2022-08-19T01:19:40;21.90;82.90
68387;DHT22;55338;43.062;25.624;2022-08-19T01:22:28;21.90;83.20
68387;DHT22;55338;43.062;25.624;2022-08-19T01:24:55;21.80;82.80
68387;DHT22;55338;43.062;25.624;2022-08-19T01:27:22;21.80;82.70
68387;DHT22;55338;43.062;25.624;2022-08-19T01:29:47;21.70;82.90
68387;DHT22;55338;43.062;25.624;2022-08-19T01:32:15;21.70;82.50
68387;DHT22;55338;43.062;25.624;2022-08-19T01:34:42;21.70;82.80
68387;DHT22;55338;43.062;25.624;2022-08-19T01:37:13;21.70;82.90
68387;DHT22;55338;43.062;25.624;2022-08-19T01:39:40;21.80;83.00
68387;DHT22;55338;43.062;25.624;2022-08-19T01:42:07;21.80;83.20
68387;DHT22;55338;43.062;25.624;2022-08-19T01:44:37;21.80;83.60
68387;DHT22;55338;43.062;25.624;2022-08-19T01:47:05;21.70;83.60
68387;DHT22;55338;43.062;25.624;2022-08-19T01:49:31;21.70;83.30
68387;DHT22;55338;43.062;25.624;2022-08-19T01:51:59;21.70;83.20
68387;DHT22;55338;43.062;25.624;2022-08-19T01:54:25;21.70;83.70
68387;DHT22;55338;43.062;25.624;2022-08-19T01:56:53;21.60;83.80
68387;DHT22;55338;43.062;25.624;2022-08-19T01:59:22;21.60;83.70
68387;DHT22;55338;43.062;25.624;2022-08-19T02:01:48;21.60;83.70
68387;DHT22;55338;43.062;25.624;2022-08-19T02:04:14;21.60;84.10
68387;DHT22;55338;43.062;25.624;2022-08-19T02:06:40;21.50;84.40
68387;DHT22;55338;43.062;25.624;2022-08-19T02:09:06;21.50;84.60
68387;DHT22;55338;43.062;25.624;2022-08-19T02:11:35;21.50;84.50
68387;DHT22;55338;43.062;25.624;2022-08-19T02:14:03;21.40;84.50
68387;DHT22;55338;43.062;25.624;2022-08-19T02:16:31;21.40;84.40
68387;DHT22;55338;43.062;25.624;2022-08-19T02:18:58;21.40;84.60
68387;DHT22;55338;43.062;25.624;2022-08-19T02:21:28;21.40;84.50
68387;DHT22;55338;43.062;25.624;2022-08-19T02:23:54;21.40;84.00
68387;DHT22;55338;43.062;25.624;2022-08-19T02:26:21;21.40;84.10
68387;DHT22;55338;43.062;25.624;2022-08-19T02:28:47;21.40;84.10
68387;DHT22;55338;43.062;25.624;2022-08-19T02:31:20;21.40;83.90
68387;DHT22;55338;43.062;25.624;2022-08-19T02:33:48;21.40;83.90
68387;DHT22;55338;43.062;25.624;2022-08-19T02:36:16;21.40;84.20
68387;DHT22;55338;43.062;25.624;2022-08-19T02:38:43;21.40;84.30
68387;DHT22;55338;43.062;25.624;2022-08-19T02:41:20;21.40;84.80
68387;DHT22;55338;43.062;25.624;2022-08-19T02:43:47;21.30;85.10
68387;DHT22;55338;43.062;25.624;2022-08-19T02:46:17;21.30;85.60
68387;DHT22;55338;43.062;25.624;2022-08-19T02:48:50;21.20;85.60
68387;DHT22;55338;43.062;25.624;2022-08-19T02:51:21;21.20;85.90
68387;DHT22;55338;43.062;25.624;2022-08-19T02:53:47;21.20;86.20
68387;DHT22;55338;43.062;25.624;2022-08-19T02:56:13;21.20;85.60
68387;DHT22;55338;43.062;25.624;2022-08-19T02:58:40;21.20;85.70
68387;DHT22;55338;43.062;25.624;2022-08-19T03:01:06;21.20;86.20
68387;DHT22;55338;43.062;25.624;2022-08-19T03:03:33;21.10;86.30
68387;DHT22;55338;43.062;25.624;2022-08-19T03:06:14;21.20;86.10
68387;DHT22;55338;43.062;25.624;2022-08-19T03:08:42;21.20;86.00
68387;DHT22;55338;43.062;25.624;2022-08-19T03:11:17;21.10;86.20
68387;DHT22;55338;43.062;25.624;2022-08-19T03:13:43;21.00;86.30
68387;DHT22;55338;43.062;25.624;2022-08-19T03:16:10;21.00;86.50
68387;DHT22;55338;43.062;25.624;2022-08-19T03:18:36;20.90;86.90
68387;DHT22;55338;43.062;25.624;2022-08-19T03:21:01;20.80;87.30
68387;DHT22;55338;43.062;25.624;2022-08-19T03:23:27;20.80;87.30
68387;DHT22;55338;43.062;25.624;2022-08-19T03:25:54;20.70;87.50
68387;DHT22;55338;43.062;25.624;2022-08-19T03:28:20;20.60;87.50
68387;DHT22;55338;43.062;25.624;2022-08-19T03:30:58;20.60;87.80
68387;DHT22;55338;43.062;25.624;2022-08-19T03:33:25;20.60;88.20
68387;DHT22;55338;43.062;25.624;2022-08-19T03:36:12;20.50;87.80
68387;DHT22;55338;43.062;25.624;2022-08-19T03:38:44;20.50;88.20
68387;DHT22;55338;43.062;25.624;2022-08-19T03:41:14;20.50;88.50
68387;DHT22;55338;43.062;25.624;2022-08-19T03:43:42;20.50;88.40
68387;DHT22;55338;43.062;25.624;2022-08-19T03:46:11;20.50;88.50
68387;DHT22;55338;43.062;25.624;2022-08-19T03:48:39;20.50;87.80
68387;DHT22;55338;43.062;25.624;2022-08-19T03:51:06;20.60;88.20
68387;DHT22;55338;43.062;25.624;2022-08-19T03:53:34;20.60;88.10
68387;DHT22;55338;43.062;25.624;2022-08-19T03:56:00;20.60;87.70
68387;DHT22;55338;43.062;25.624;2022-08-19T03:58:28;20.70;87.80
68387;DHT22;55338;43.062;25.624;2022-08-19T04:00:58;20.80;87.70
68387;DHT22;55338;43.062;25.624;2022-08-19T04:03:25;20.80;87.00
68387;DHT22;55338;43.062;25.624;2022-08-19T04:05:53;21.00;87.00
68387;DHT22;55338;43.062;25.624;2022-08-19T04:08:19;21.00;86.80
68387;DHT22;55338;43.062;25.624;2022-08-19T04:10:47;21.10;86.30
68387;DHT22;55338;43.062;25.624;2022-08-19T04:13:15;21.20;86.50
68387;DHT22;55338;43.062;25.624;2022-08-19T04:15:43;21.30;86.40
68387;DHT22;55338;43.062;25.624;2022-08-19T04:18:10;21.40;85.70
68387;DHT22;55338;43.062;25.624;2022-08-19T04:20:45;21.50;85.50
68387;DHT22;55338;43.062;25.624;2022-08-19T04:23:12;21.70;84.70
68387;DHT22;55338;43.062;25.624;2022-08-19T04:25:40;21.70;83.50
68387;DHT22;55338;43.062;25.624;2022-08-19T04:28:06;21.90;83.70
68387;DHT22;55338;43.062;25.624;2022-08-19T04:30:41;22.00;83.00
68387;DHT22;55338;43.062;25.624;2022-08-19T04:33:07;22.10;82.50
68387;DHT22;55338;43.062;25.624;2022-08-19T04:35:42;22.20;82.10
68387;DHT22;55338;43.062;25.624;2022-08-19T04:38:09;22.30;81.80
68387;DHT22;55338;43.062;25.624;2022-08-19T04:40:40;22.40;81.60
68387;DHT22;55338;43.062;25.624;2022-08-19T04:43:25;22.50;80.90
68387;DHT22;55338;43.062;25.624;2022-08-19T04:45:51;22.70;80.60
68387;DHT22;55338;43.062;25.624;2022-08-19T04:48:17;23.20;80.40
68387;DHT22;55338;43.062;25.624;2022-08-19T04:50:52;22.90;79.80
68387;DHT22;55338;43.062;25.624;2022-08-19T04:53:27;23.00;78.90
68387;DHT22;55338;43.062;25.624;2022-08-19T04:55:55;23.10;78.40
68387;DHT22;55338;43.062;25.624;2022-08-19T04:58:22;23.20;78.00
68387;DHT22;55338;43.062;25.624;2022-08-19T05:00:48;23.30;78.00
68387;DHT22;55338;43.062;25.624;2022-08-19T05:03:14;23.50;77.90
68387;DHT22;55338;43.062;25.624;2022-08-19T05:05:44;23.60;77.00
68387;DHT22;55338;43.062;25.624;2022-08-19T05:08:14;23.80;76.50
68387;DHT22;55338;43.062;25.624;2022-08-19T05:10:46;23.90;76.00
68387;DHT22;55338;43.062;25.624;2022-08-19T05:13:12;24.00;75.50
68387;DHT22;55338;43.062;25.624;2022-08-19T05:15:38;24.20;74.90
68387;DHT22;55338;43.062;25.624;2022-08-19T05:18:04;24.40;74.20
68387;DHT22;55338;43.062;25.624;2022-08-19T05:20:50;24.50;73.20
68387;DHT22;55338;43.062;25.624;2022-08-19T05:23:34;24.70;72.70
68387;DHT22;55338;43.062;25.624;2022-08-19T05:26:00;24.90;71.90
68387;DHT22;55338;43.062;25.624;2022-08-19T05:28:26;25.00;71.20
68387;DHT22;55338;43.062;25.624;2022-08-19T05:30:53;25.20;70.20
68387;DHT22;55338;43.062;25.624;2022-08-19T05:33:22;24.80;69.30
68387;DHT22;55338;43.062;25.624;2022-08-19T05:35:49;25.50;68.70
68387;DHT22;55338;43.062;25.624;2022-08-19T05:38:19;25.70;68.20
68387;DHT22;55338;43.062;25.624;2022-08-19T05:40:45;25.80;67.10
68387;DHT22;55338;43.062;25.624;2022-08-19T05:43:15;26.00;67.20
68387;DHT22;55338;43.062;25.624;2022-08-19T05:45:42;26.30;66.20
68387;DHT22;55338;43.062;25.624;2022-08-19T05:48:10;26.50;65.10
68387;DHT22;55338;43.062;25.624;2022-08-19T05:50:38;26.70;64.00
68387;DHT22;55338;43.062;25.624;2022-08-19T05:53:04;26.90;63.20
68387;DHT22;55338;43.062;25.624;2022-08-19T05:55:31;27.00;63.50
68387;DHT22;55338;43.062;25.624;2022-08-19T05:57:56;27.20;62.70
68387;DHT22;55338;43.062;25.624;2022-08-19T06:00:22;27.40;62.30
68387;DHT22;55338;43.062;25.624;2022-08-19T06:02:48;27.50;61.20
68387;DHT22;55338;43.062;25.624;2022-08-19T06:05:14;27.80;59.80
68387;DHT22;55338;43.062;25.624;2022-08-19T06:07:40;28.00;58.90
68387;DHT22;55338;43.062;25.624;2022-08-19T06:10:08;28.20;58.20
68387;DHT22;55338;43.062;25.624;2022-08-19T06:12:35;28.50;57.50
68387;DHT22;55338;43.062;25.624;2022-08-19T06:15:08;28.80;56.20
68387;DHT22;55338;43.062;25.624;2022-08-19T06:17:35;29.20;55.40
68387;DHT22;55338;43.062;25.624;2022-08-19T06:20:03;29.40;54.50
68387;DHT22;55338;43.062;25.624;2022-08-19T06:22:29;29.80;53.60
68387;DHT22;55338;43.062;25.624;2022-08-19T06:24:55;30.30;53.10
68387;DHT22;55338;43.062;25.624;2022-08-19T06:27:22;30.70;50.10
68387;DHT22;55338;43.062;25.624;2022-08-19T06:29:48;31.10;49.90
68387;DHT22;55338;43.062;25.624;2022-08-19T06:32:15;31.20;48.90
68387;DHT22;55338;43.062;25.624;2022-08-19T06:34:43;31.30;47.80
68387;DHT22;55338;43.062;25.624;2022-08-19T06:37:10;31.70;47.30
68387;DHT22;55338;43.062;25.624;2022-08-19T06:39:38;32.20;46.30
68387;DHT22;55338;43.062;25.624;2022-08-19T06:42:05;32.50;45.00
68387;DHT22;55338;43.062;25.624;2022-08-19T06:44:35;33.00;44.80
68387;DHT22;55338;43.062;25.624;2022-08-19T06:47:03;33.20;43.30
68387;DHT22;55338;43.062;25.624;2022-08-19T06:49:30;33.30;43.00
68387;DHT22;55338;43.062;25.624;2022-08-19T06:51:59;33.80;41.60
68387;DHT22;55338;43.062;25.624;2022-08-19T06:54:26;34.20;41.20
68387;DHT22;55338;43.062;25.624;2022-08-19T06:56:54;34.50;40.60
68387;DHT22;55338;43.062;25.624;2022-08-19T06:59:22;34.80;39.40
68387;DHT22;55338;43.062;25.624;2022-08-19T07:01:52;35.20;38.90
68387;DHT22;55338;43.062;25.624;2022-08-19T07:04:22;35.10;38.80
68387;DHT22;55338;43.062;25.624;2022-08-19T07:06:49;35.30;38.30
68387;DHT22;55338;43.062;25.624;2022-08-19T07:09:17;35.40;38.20
68387;DHT22;55338;43.062;25.624;2022-08-19T07:11:45;35.50;38.20
68387;DHT22;55338;43.062;25.624;2022-08-19T07:14:11;35.80;37.20
68387;DHT22;55338;43.062;25.624;2022-08-19T07:16:37;36.10;37.10
68387;DHT22;55338;43.062;25.624;2022-08-19T07:19:03;36.30;36.10
68387;DHT22;55338;43.062;25.624;2022-08-19T07:21:29;36.60;35.60
68387;DHT22;55338;43.062;25.624;2022-08-19T07:23:56;36.80;34.90
68387;DHT22;55338;43.062;25.624;2022-08-19T07:26:30;37.10;35.00
68387;DHT22;55338;43.062;25.624;2022-08-19T07:28:58;37.40;34.00
68387;DHT22;55338;43.062;25.624;2022-08-19T07:31:26;37.80;33.20
68387;DHT22;55338;43.062;25.624;2022-08-19T07:33:54;37.90;32.90
68387;DHT22;55338;43.062;25.624;2022-08-19T07:36:26;38.10;33.00
68387;DHT22;55338;43.062;25.624;2022-08-19T07:38:59;38.30;32.90
68387;DHT22;55338;43.062;25.624;2022-08-19T07:41:27;38.40;31.20
68387;DHT22;55338;43.062;25.624;2022-08-19T07:43:54;38.40;31.30
68387;DHT22;55338;43.062;25.624;2022-08-19T07:46:20;38.20;31.40
68387;DHT22;55338;43.062;25.624;2022-08-19T07:48:48;38.50;31.00
68387;DHT22;55338;43.062;25.624;2022-08-19T07:51:19;38.50;31.30
68387;DHT22;55338;43.062;25.624;2022-08-19T07:53:46;38.70;30.90
68387;DHT22;55338;43.062;25.624;2022-08-19T07:56:13;38.80;30.60
68387;DHT22;55338;43.062;25.624;2022-08-19T07:58:41;39.10;30.20
68387;DHT22;55338;43.062;25.624;2022-08-19T08:01:10;39.30;29.70
68387;DHT22;55338;43.062;25.624;2022-08-19T08:03:36;38.60;30.80
68387;DHT22;55338;43.062;25.624;2022-08-19T08:06:21;38.20;31.10
68387;DHT22;55338;43.062;25.624;2022-08-19T08:09:05;38.50;30.30
68387;DHT22;55338;43.062;25.624;2022-08-19T08:11:42;38.80;29.70
68387;DHT22;55338;43.062;25.624;2022-08-19T08:14:21;39.10;29.50
68387;DHT22;55338;43.062;25.624;2022-08-19T08:16:48;39.20;29.20
68387;DHT22;55338;43.062;25.624;2022-08-19T08:19:18;39.40;28.80
68387;DHT22;55338;43.062;25.624;2022-08-19T08:21:45;39.50;28.90
68387;DHT22;55338;43.062;25.624;2022-08-19T08:24:11;39.70;28.50
68387;DHT22;55338;43.062;25.624;2022-08-19T08:26:38;40.10;27.90
68387;DHT22;55338;43.062;25.624;2022-08-19T08:29:03;40.40;26.80
68387;DHT22;55338;43.062;25.624;2022-08-19T08:31:29;40.50;26.80
68387;DHT22;55338;43.062;25.624;2022-08-19T08:33:55;40.60;26.50
68387;DHT22;55338;43.062;25.624;2022-08-19T08:36:21;40.60;26.50
68387;DHT22;55338;43.062;25.624;2022-08-19T08:38:47;40.80;25.20
68387;DHT22;55338;43.062;25.624;2022-08-19T08:43:52;41.10;24.80
68387;DHT22;55338;43.062;25.624;2022-08-19T08:46:23;41.20;25.10
68387;DHT22;55338;43.062;25.624;2022-08-19T08:51:32;41.30;24.30
68387;DHT22;55338;43.062;25.624;2022-08-19T08:54:00;41.60;23.80
68387;DHT22;55338;43.062;25.624;2022-08-19T08:56:27;41.60;23.20
68387;DHT22;55338;43.062;25.624;2022-08-19T08:59:03;41.60;23.20
68387;DHT22;55338;43.062;25.624;2022-08-19T09:01:34;41.40;23.70
68387;DHT22;55338;43.062;25.624;2022-08-19T09:03:59;40.90;23.80
68387;DHT22;55338;43.062;25.624;2022-08-19T09:06:44;41.00;24.20
68387;DHT22;55338;43.062;25.624;2022-08-19T09:09:34;41.10;23.90
68387;DHT22;55338;43.062;25.624;2022-08-19T09:14:58;41.40;22.80
68387;DHT22;55338;43.062;25.624;2022-08-19T09:17:28;41.30;22.70
68387;DHT22;55338;43.062;25.624;2022-08-19T09:20:20;41.60;22.50
68387;DHT22;55338;43.062;25.624;2022-08-19T09:22:46;41.80;22.00
68387;DHT22;55338;43.062;25.624;2022-08-19T09:25:16;41.70;22.00
68387;DHT22;55338;43.062;25.624;2022-08-19T09:27:43;42.00;21.90
68387;DHT22;55338;43.062;25.624;2022-08-19T09:30:20;41.80;22.00
68387;DHT22;55338;43.062;25.624;2022-08-19T09:32:47;41.60;22.10
68387;DHT22;55338;43.062;25.624;2022-08-19T09:35:14;41.80;21.40
68387;DHT22;55338;43.062;25.624;2022-08-19T09:37:41;41.80;22.00
68387;DHT22;55338;43.062;25.624;2022-08-19T09:40:09;41.70;22.20
68387;DHT22;55338;43.062;25.624;2022-08-19T09:42:36;42.20;22.10
68387;DHT22;55338;43.062;25.624;2022-08-19T09:45:02;42.30;22.00
68387;DHT22;55338;43.062;25.624;2022-08-19T09:47:29;42.40;21.40
68387;DHT22;55338;43.062;25.624;2022-08-19T09:49:55;42.30;21.90
68387;DHT22;55338;43.062;25.624;2022-08-19T09:52:20;42.20;22.00
68387;DHT22;55338;43.062;25.624;2022-08-19T09:54:46;42.50;21.80
68387;DHT22;55338;43.062;25.624;2022-08-19T09:57:12;42.90;20.60
68387;DHT22;55338;43.062;25.624;2022-08-19T09:59:39;43.30;20.40
68387;DHT22;55338;43.062;25.624;2022-08-19T10:02:05;42.90;20.70
68387;DHT22;55338;43.062;25.624;2022-08-19T10:04:31;43.00;20.80
68387;DHT22;55338;43.062;25.624;2022-08-19T10:07:15;42.90;19.90
68387;DHT22;55338;43.062;25.624;2022-08-19T10:09:41;43.30;20.00
68387;DHT22;55338;43.062;25.624;2022-08-19T10:12:07;43.20;20.80
68387;DHT22;55338;43.062;25.624;2022-08-19T10:14:34;43.50;20.30
68387;DHT22;55338;43.062;25.624;2022-08-19T10:17:01;43.60;20.00
68387;DHT22;55338;43.062;25.624;2022-08-19T10:19:28;43.80;19.60
68387;DHT22;55338;43.062;25.624;2022-08-19T10:21:57;43.60;19.50
68387;DHT22;55338;43.062;25.624;2022-08-19T10:24:23;43.30;19.90
68387;DHT22;55338;43.062;25.624;2022-08-19T10:26:51;43.60;19.10
68387;DHT22;55338;43.062;25.624;2022-08-19T10:29:17;43.60;19.60
68387;DHT22;55338;43.062;25.624;2022-08-19T10:31:43;43.90;19.10
68387;DHT22;55338;43.062;25.624;2022-08-19T10:34:09;44.10;19.00
68387;DHT22;55338;43.062;25.624;2022-08-19T10:36:36;44.00;18.70
68387;DHT22;55338;43.062;25.624;2022-08-19T10:39:09;44.10;17.80
68387;DHT22;55338;43.062;25.624;2022-08-19T10:41:37;44.10;17.90
68387;DHT22;55338;43.062;25.624;2022-08-19T10:44:07;44.20;18.60
68387;DHT22;55338;43.062;25.624;2022-08-19T10:46:36;44.70;17.80
68387;DHT22;55338;43.062;25.624;2022-08-19T10:49:04;45.00;17.80
68387;DHT22;55338;43.062;25.624;2022-08-19T10:51:31;45.00;17.90
68387;DHT22;55338;43.062;25.624;2022-08-19T10:54:16;44.80;17.70
68387;DHT22;55338;43.062;25.624;2022-08-19T10:56:42;44.80;17.40
68387;DHT22;55338;43.062;25.624;2022-08-19T10:59:19;44.70;17.60
68387;DHT22;55338;43.062;25.624;2022-08-19T11:01:46;44.00;18.80
68387;DHT22;55338;43.062;25.624;2022-08-19T11:04:12;43.40;19.20
68387;DHT22;55338;43.062;25.624;2022-08-19T11:06:42;43.40;19.30
68387;DHT22;55338;43.062;25.624;2022-08-19T11:09:09;43.80;18.70
68387;DHT22;55338;43.062;25.624;2022-08-19T11:11:37;43.90;19.00
68387;DHT22;55338;43.062;25.624;2022-08-19T11:14:14;44.00;19.20
68387;DHT22;55338;43.062;25.624;2022-08-19T11:16:41;44.00;18.90
68387;DHT22;55338;43.062;25.624;2022-08-19T11:19:39;43.00;19.50
68387;DHT22;55338;43.062;25.624;2022-08-19T11:22:16;41.80;20.40
68387;DHT22;55338;43.062;25.624;2022-08-19T11:24:42;41.20;21.70
68387;DHT22;55338;43.062;25.624;2022-08-19T11:27:09;40.80;22.30
68387;DHT22;55338;43.062;25.624;2022-08-19T11:29:37;40.60;23.00
68387;DHT22;55338;43.062;25.624;2022-08-19T11:32:08;41.20;21.90
68387;DHT22;55338;43.062;25.624;2022-08-19T11:34:35;42.00;20.90
68387;DHT22;55338;43.062;25.624;2022-08-19T11:37:02;42.50;18.90
68387;DHT22;55338;43.062;25.624;2022-08-19T11:39:30;42.80;18.60
68387;DHT22;55338;43.062;25.624;2022-08-19T11:41:58;43.30;17.60
68387;DHT22;55338;43.062;25.624;2022-08-19T11:44:24;43.10;17.70
68387;DHT22;55338;43.062;25.624;2022-08-19T11:46:51;43.00;18.40
68387;DHT22;55338;43.062;25.624;2022-08-19T11:49:19;43.50;17.80
68387;DHT22;55338;43.062;25.624;2022-08-19T11:51:46;43.80;18.60
68387;DHT22;55338;43.062;25.624;2022-08-19T11:54:14;43.80;18.50
68387;DHT22;55338;43.062;25.624;2022-08-19T11:56:41;43.90;18.50
68387;DHT22;55338;43.062;25.624;2022-08-19T11:59:07;43.20;19.20
68387;DHT22;55338;43.062;25.624;2022-08-19T12:01:34;42.20;20.00
68387;DHT22;55338;43.062;25.624;2022-08-19T12:04:00;41.20;20.70
68387;DHT22;55338;43.062;25.624;2022-08-19T12:06:29;40.90;21.20
68387;DHT22;55338;43.062;25.624;2022-08-19T12:08:57;41.20;21.00
68387;DHT22;55338;43.062;25.624;2022-08-19T12:11:23;41.40;20.50
68387;DHT22;55338;43.062;25.624;2022-08-19T12:13:50;41.80;19.40
68387;DHT22;55338;43.062;25.624;2022-08-19T12:16:19;42.30;18.30
68387;DHT22;55338;43.062;25.624;2022-08-19T12:18:46;42.60;18.40
68387;DHT22;55338;43.062;25.624;2022-08-19T12:21:18;43.00;18.10
68387;DHT22;55338;43.062;25.624;2022-08-19T12:23:47;43.30;17.50
68387;DHT22;55338;43.062;25.624;2022-08-19T12:26:14;42.40;17.80
68387;DHT22;55338;43.062;25.624;2022-08-19T12:28:40;42.40;18.20
68387;DHT22;55338;43.062;25.624;2022-08-19T12:31:07;42.40;19.00
68387;DHT22;55338;43.062;25.624;2022-08-19T12:33:33;42.90;17.80
68387;DHT22;55338;43.062;25.624;2022-08-19T12:36:05;43.10;17.60
68387;DHT22;55338;43.062;25.624;2022-08-19T12:38:32;43.40;17.00
68387;DHT22;55338;43.062;25.624;2022-08-19T12:40:59;43.80;16.20
68387;DHT22;55338;43.062;25.624;2022-08-19T12:43:26;43.80;17.00
68387;DHT22;55338;43.062;25.624;2022-08-19T12:45:52;44.10;17.50
68387;DHT22;55338;43.062;25.624;2022-08-19T12:48:18;44.30;18.00
68387;DHT22;55338;43.062;25.624;2022-08-19T12:50:45;44.30;17.10
68387;DHT22;55338;43.062;25.624;2022-08-19T12:53:20;44.20;16.90
68387;DHT22;55338;43.062;25.624;2022-08-19T12:55:45;43.40;17.50
68387;DHT22;55338;43.062;25.624;2022-08-19T12:58:11;42.80;18.50
68387;DHT22;55338;43.062;25.624;2022-08-19T13:00:38;42.60;18.40
68387;DHT22;55338;43.062;25.624;2022-08-19T13:03:04;42.90;18.10
68387;DHT22;55338;43.062;25.624;2022-08-19T13:05:32;43.00;18.40
68387;DHT22;55338;43.062;25.624;2022-08-19T13:07:59;43.20;17.90
68387;DHT22;55338;43.062;25.624;2022-08-19T13:10:32;43.40;17.30
68387;DHT22;55338;43.062;25.624;2022-08-19T13:13:03;43.80;17.00
68387;DHT22;55338;43.062;25.624;2022-08-19T13:15:34;44.00;17.10
68387;DHT22;55338;43.062;25.624;2022-08-19T13:18:00;44.00;17.00
68387;DHT22;55338;43.062;25.624;2022-08-19T13:20:26;43.40;17.40
68387;DHT22;55338;43.062;25.624;2022-08-19T13:22:53;42.80;18.10
68387;DHT22;55338;43.062;25.624;2022-08-19T13:25:19;42.00;19.10
68387;DHT22;55338;43.062;25.624;2022-08-19T13:27:47;41.50;19.50
68387;DHT22;55338;43.062;25.624;2022-08-19T13:30:15;41.10;20.70
68387;DHT22;55338;43.062;25.624;2022-08-19T13:32:59;41.00;21.60
68387;DHT22;55338;43.062;25.624;2022-08-19T13:35:46;41.50;20.20
68387;DHT22;55338;43.062;25.624;2022-08-19T13:38:13;42.00;19.80
68387;DHT22;55338;43.062;25.624;2022-08-19T13:40:41;42.40;19.10
68387;DHT22;55338;43.062;25.624;2022-08-19T13:43:08;42.80;18.30
68387;DHT22;55338;43.062;25.624;2022-08-19T13:45:34;42.80;18.20
68387;DHT22;55338;43.062;25.624;2022-08-19T13:48:03;42.70;18.80
68387;DHT22;55338;43.062;25.624;2022-08-19T13:50:38;42.80;18.80
68387;DHT22;55338;43.062;25.624;2022-08-19T13:53:07;43.00;18.80
68387;DHT22;55338;43.062;25.624;2022-08-19T13:56:07;43.00;18.50
68387;DHT22;55338;43.062;25.624;2022-08-19T13:58:34;43.00;18.40
68387;DHT22;55338;43.062;25.624;2022-08-19T14:01:00;42.80;18.30
68387;DHT22;55338;43.062;25.624;2022-08-19T14:03:26;42.50;18.80
68387;DHT22;55338;43.062;25.624;2022-08-19T14:05:53;42.50;18.60
68387;DHT22;55338;43.062;25.624;2022-08-19T14:08:19;41.50;19.40
68387;DHT22;55338;43.062;25.624;2022-08-19T14:10:45;41.00;20.80
68387;DHT22;55338;43.062;25.624;2022-08-19T14:13:14;40.50;21.00
68387;DHT22;55338;43.062;25.624;2022-08-19T14:15:41;40.00;22.10
68387;DHT22;55338;43.062;25.624;2022-08-19T14:18:06;39.80;21.60
68387;DHT22;55338;43.062;25.624;2022-08-19T14:20:35;39.30;22.90
68387;DHT22;55338;43.062;25.624;2022-08-19T14:23:02;38.90;23.50
68387;DHT22;55338;43.062;25.624;2022-08-19T14:25:31;38.60;24.00
68387;DHT22;55338;43.062;25.624;2022-08-19T14:28:28;38.20;25.00
68387;DHT22;55338;43.062;25.624;2022-08-19T14:30:55;38.00;25.30
68387;DHT22;55338;43.062;25.624;2022-08-19T14:33:21;38.00;25.20
68387;DHT22;55338;43.062;25.624;2022-08-19T14:35:47;38.10;25.00
68387;DHT22;55338;43.062;25.624;2022-08-19T14:38:17;38.00;24.50
68387;DHT22;55338;43.062;25.624;2022-08-19T14:40:44;37.60;25.00
68387;DHT22;55338;43.062;25.624;2022-08-19T14:43:10;37.50;25.30
68387;DHT22;55338;43.062;25.624;2022-08-19T14:45:38;37.50;25.80
68387;DHT22;55338;43.062;25.624;2022-08-19T14:48:05;37.40;26.50
68387;DHT22;55338;43.062;25.624;2022-08-19T14:50:33;37.30;26.90
68387;DHT22;55338;43.062;25.624;2022-08-19T14:53:02;37.20;27.10
68387;DHT22;55338;43.062;25.624;2022-08-19T14:55:30;37.20;27.60
68387;DHT22;55338;43.062;25.624;2022-08-19T14:57:55;37.10;27.50
68387;DHT22;55338;43.062;25.624;2022-08-19T15:00:54;37.00;27.90
68387;DHT22;55338;43.062;25.624;2022-08-19T15:03:19;36.80;27.80
68387;DHT22;55338;43.062;25.624;2022-08-19T15:05:45;36.70;28.00
68387;DHT22;55338;43.062;25.624;2022-08-19T15:08:11;36.70;27.70
68387;DHT22;55338;43.062;25.624;2022-08-19T15:10:38;36.50;27.60
68387;DHT22;55338;43.062;25.624;2022-08-19T15:13:04;36.40;27.80
68387;DHT22;55338;43.062;25.624;2022-08-19T15:15:31;36.30;27.60
68387;DHT22;55338;43.062;25.624;2022-08-19T15:17:57;36.30;28.00
68387;DHT22;55338;43.062;25.624;2022-08-19T15:20:28;36.30;28.10
68387;DHT22;55338;43.062;25.624;2022-08-19T15:23:26;36.20;28.30
68387;DHT22;55338;43.062;25.624;2022-08-19T15:25:51;36.00;29.00
68387;DHT22;55338;43.062;25.624;2022-08-19T15:28:21;36.00;29.30
68387;DHT22;55338;43.062;25.624;2022-08-19T15:30:47;36.00;29.80
68387;DHT22;55338;43.062;25.624;2022-08-19T15:33:13;36.00;29.70